Time;durP1;ratioP1;P1;durP2;ratioP2;P2;SDS_P1;SDS_P2;PMS_P1;PMS_P2;Temp;Humidity;BMP_temperature;BMP_pressure;BME280_temperature;BME280_humidity;BME280_pressure;Samples;Min_cycle;Max_cycle;Signal;HPM_P1;HPM_P2
2021/12/30 00:01:58;;;;;;;133.43;57.97;;;;;;;;;;4408945;32;20231;-83
2021/12/30 00:04:24;;;;;;;143.57;58.13;;;;;;;;;;4410116;32;20222;-85
2021/12/30 00:06:50;;;;;;;126.20;60.53;;;;;;;;;;4410016;32;20599;-80
2021/12/30 00:09:18;;;;;;;135.20;62.03;;;;;;;;;;4408944;32;20578;-79
2021/12/30 00:11:44;;;;;;;128.20;63.17;;;;;;;;;;4408685;32;20243;-82
2021/12/30 00:14:09;;;;;;;112.80;56.27;;;;;;;;;;4408264;32;20630;-81
2021/12/30 00:16:36;;;;;;;100.87;48.17;;;;;;;;;;4394238;32;20545;-82
2021/12/30 00:19:02;;;;;;;71.83;35.77;;;;;;;;;;4408479;32;20286;-82
2021/12/30 00:21:27;;;;;;;79.53;37.20;;;;;;;;;;4382240;32;20255;-80
2021/12/30 00:23:53;;;;;;;66.03;32.33;;;;;;;;;;4408818;32;20217;-83
2021/12/30 00:26:19;;;;;;;51.13;27.93;;;;;;;;;;4408059;32;20210;-84
2021/12/30 00:28:46;;;;;;;56.40;23.47;;;;;;;;;;4408244;32;20236;-82
2021/12/30 00:31:11;;;;;;;45.43;20.70;;;;;;;;;;4407573;32;20362;-79
2021/12/30 00:33:37;;;;;;;48.20;19.60;;;;;;;;;;4407716;32;20584;-81
2021/12/30 00:36:06;;;;;;;48.83;25.10;;;;;;;;;;4380621;32;20562;-81
2021/12/30 00:38:32;;;;;;;64.77;26.43;;;;;;;;;;4393611;32;20540;-81
2021/12/30 00:40:58;;;;;;;58.27;26.93;;;;;;;;;;4407243;32;20589;-83
2021/12/30 00:43:23;;;;;;;39.90;17.87;;;;;;;;;;4393376;32;20296;-83
2021/12/30 00:45:48;;;;;;;49.53;21.27;;;;;;;;;;4407177;32;20194;-86
2021/12/30 00:48:14;;;;;;;20.67;11.30;;;;;;;;;;4407728;32;20482;-82
2021/12/30 00:50:41;;;;;;;13.83;6.67;;;;;;;;;;4407170;32;20274;-86
2021/12/30 00:53:10;;;;;;;5.23;3.00;;;;;;;;;;4406909;32;20210;-81
2021/12/30 00:55:36;;;;;;;5.27;1.73;;;;;;;;;;4407270;32;20511;-85
2021/12/30 00:58:03;;;;;;;1.90;1.53;;;;;;;;;;4406975;32;20194;-84
2021/12/30 01:00:29;;;;;;;1.93;1.40;;;;;;;;;;4407020;32;20225;-83
2021/12/30 01:02:54;;;;;;;2.03;1.30;;;;;;;;;;4406966;32;20277;-83
2021/12/30 01:05:20;;;;;;;1.90;1.40;;;;;;;;;;4407566;32;20229;-83
2021/12/30 01:07:46;;;;;;;2.20;1.50;;;;;;;;;;4406881;32;20622;-84
2021/12/30 01:10:17;;;;;;;2.27;1.40;;;;;;;;;;4406849;32;20519;-84
2021/12/30 01:12:43;;;;;;;5.43;3.53;;;;;;;;;;4407027;32;20190;-86
2021/12/30 01:15:12;;;;;;;3.80;2.90;;;;;;;;;;4406862;32;20217;-83
2021/12/30 01:17:47;;;;;;;7.53;3.37;;;;;;;;;;4406784;32;20240;-81
2021/12/30 01:20:14;;;;;;;1.97;1.50;;;;;;;;;;4392913;32;20282;-86
2021/12/30 01:22:40;;;;;;;3.33;2.13;;;;;;;;;;4392559;32;20243;-83
2021/12/30 01:25:07;;;;;;;3.37;2.00;;;;;;;;;;4406508;32;20221;-83
2021/12/30 01:27:36;;;;;;;2.20;1.80;;;;;;;;;;4392882;32;20353;-82
2021/12/30 01:30:05;;;;;;;2.60;2.20;;;;;;;;;;4406649;32;20221;-82
2021/12/30 01:32:31;;;;;;;3.77;2.27;;;;;;;;;;4406656;32;20547;-80
2021/12/30 01:34:59;;;;;;;5.97;3.17;;;;;;;;;;4406323;32;20225;-86
2021/12/30 01:37:24;;;;;;;5.63;3.57;;;;;;;;;;4406369;32;20272;-84
2021/12/30 01:39:52;;;;;;;5.90;3.37;;;;;;;;;;4406310;32;20258;-82
2021/12/30 01:42:18;;;;;;;7.37;3.57;;;;;;;;;;4406500;32;20569;-82
2021/12/30 01:44:43;;;;;;;7.80;4.47;;;;;;;;;;4406411;32;20341;-81
2021/12/30 01:47:09;;;;;;;7.03;3.07;;;;;;;;;;4406271;32;20198;-80
2021/12/30 01:49:37;;;;;;;9.50;4.03;;;;;;;;;;4406486;32;20240;-83
2021/12/30 01:52:03;;;;;;;7.27;3.53;;;;;;;;;;4392634;32;20661;-85
2021/12/30 01:54:29;;;;;;;7.57;4.70;;;;;;;;;;4405938;32;20380;-81
2021/12/30 01:56:59;;;;;;;5.97;3.50;;;;;;;;;;4406649;32;20623;-84
2021/12/30 01:59:25;;;;;;;7.37;4.40;;;;;;;;;;4406219;32;20284;-82
2021/12/30 02:01:56;;;;;;;2.80;2.13;;;;;;;;;;4406279;32;20593;-83
2021/12/30 02:04:26;;;;;;;2.93;2.03;;;;;;;;;;4406031;32;20760;-85
2021/12/30 02:06:52;;;;;;;11.07;5.13;;;;;;;;;;4406040;32;20197;-81
2021/12/30 02:09:19;;;;;;;11.03;4.43;;;;;;;;;;4406039;32;20280;-82
2021/12/30 02:11:45;;;;;;;8.30;4.07;;;;;;;;;;4405883;32;20711;-80
2021/12/30 02:14:11;;;;;;;11.87;6.10;;;;;;;;;;4405584;32;20221;-83
2021/12/30 02:16:37;;;;;;;13.87;5.83;;;;;;;;;;4405721;32;20554;-83
2021/12/30 02:19:04;;;;;;;16.63;7.73;;;;;;;;;;4405635;32;20243;-81
2021/12/30 02:21:29;;;;;;;32.67;14.37;;;;;;;;;;4405551;32;20243;-80
2021/12/30 02:23:58;;;;;;;45.00;17.40;;;;;;;;;;4405323;32;20248;-80
2021/12/30 02:26:23;;;;;;;71.33;27.60;;;;;;;;;;4408175;32;20262;-81
2021/12/30 02:28:49;;;;;;;77.57;32.87;;;;;;;;;;4409140;32;20217;-79
2021/12/30 02:31:19;;;;;;;96.83;40.13;;;;;;;;;;4408747;32;20395;-77
2021/12/30 02:33:46;;;;;;;64.23;27.37;;;;;;;;;;4409626;32;20221;-82
2021/12/30 02:36:14;;;;;;;60.20;24.03;;;;;;;;;;4407594;32;20232;-82
2021/12/30 02:38:45;;;;;;;53.30;21.20;;;;;;;;;;4407321;32;20232;-80
2021/12/30 02:41:16;;;;;;;57.87;22.03;;;;;;;;;;4405655;32;20209;-84
2021/12/30 02:43:42;;;;;;;47.83;20.67;;;;;;;;;;4405334;32;20321;-85
2021/12/30 02:46:08;;;;;;;49.70;19.70;;;;;;;;;;4405972;32;20194;-82
2021/12/30 02:48:35;;;;;;;38.73;18.00;;;;;;;;;;4405195;32;20276;-82
2021/12/30 02:51:05;;;;;;;35.23;16.77;;;;;;;;;;4404596;32;20534;-80
2021/12/30 02:53:32;;;;;;;28.17;12.53;;;;;;;;;;4405560;32;20197;-83
2021/12/30 02:55:58;;;;;;;45.83;17.17;;;;;;;;;;4391897;32;20225;-80
2021/12/30 02:58:25;;;;;;;28.40;12.33;;;;;;;;;;4406560;32;20319;-84
2021/12/30 03:01:00;;;;;;;18.13;9.37;;;;;;;;;;4408562;32;20231;-82
2021/12/30 03:03:26;;;;;;;14.43;7.67;;;;;;;;;;4409012;32;20391;-82
2021/12/30 03:06:00;;;;;;;16.37;9.03;;;;;;;;;;4408369;32;20202;-79
2021/12/30 03:08:26;;;;;;;14.17;7.73;;;;;;;;;;4408660;32;20622;-78
2021/12/30 03:10:52;;;;;;;14.87;7.07;;;;;;;;;;4408464;32;20221;-82
2021/12/30 03:13:19;;;;;;;28.83;15.67;;;;;;;;;;4408524;32;20213;-79
2021/12/30 03:15:46;;;;;;;32.37;18.70;;;;;;;;;;4408114;32;20260;-84
2021/12/30 03:18:13;;;;;;;16.33;9.33;;;;;;;;;;4408511;32;20193;-84
2021/12/30 03:20:40;;;;;;;18.03;7.53;;;;;;;;;;4407750;32;20244;-82
2021/12/30 03:23:05;;;;;;;12.67;6.53;;;;;;;;;;4408469;32;20248;-84
2021/12/30 03:25:31;;;;;;;12.33;6.67;;;;;;;;;;4394048;32;20221;-83
2021/12/30 03:27:58;;;;;;;17.10;9.60;;;;;;;;;;4394420;32;20225;-84
2021/12/30 03:30:24;;;;;;;16.43;7.50;;;;;;;;;;4407797;32;20307;-83
2021/12/30 03:32:50;;;;;;;15.73;7.40;;;;;;;;;;4408412;32;20210;-83
2021/12/30 03:35:17;;;;;;;16.07;7.13;;;;;;;;;;4407833;32;20243;-79
2021/12/30 03:37:43;;;;;;;5.87;3.73;;;;;;;;;;4407976;32;20288;-81
2021/12/30 03:40:13;;;;;;;6.13;2.87;;;;;;;;;;4407686;32;20230;-81
2021/12/30 03:42:39;;;;;;;5.33;3.60;;;;;;;;;;4381818;32;20298;-82
2021/12/30 03:45:07;;;;;;;10.93;5.90;;;;;;;;;;4407503;32;20248;-87
2021/12/30 03:47:38;;;;;;;17.57;7.53;;;;;;;;;;4381524;32;20251;-83
2021/12/30 03:50:05;;;;;;;19.80;8.70;;;;;;;;;;4407456;32;20284;-83
2021/12/30 03:52:31;;;;;;;21.03;10.33;;;;;;;;;;4407981;32;20254;-80
2021/12/30 03:54:57;;;;;;;21.57;9.07;;;;;;;;;;4407879;32;20225;-81
2021/12/30 03:57:23;;;;;;;15.17;7.50;;;;;;;;;;4407595;32;20610;-81
2021/12/30 03:59:51;;;;;;;18.40;8.00;;;;;;;;;;4407443;32;20611;-83
2021/12/30 04:02:16;;;;;;;11.10;6.90;;;;;;;;;;4407339;32;20249;-82
2021/12/30 04:04:42;;;;;;;8.33;4.53;;;;;;;;;;4407389;32;20657;-86
2021/12/30 04:07:08;;;;;;;6.80;4.33;;;;;;;;;;4407489;32;20239;-81
2021/12/30 04:09:34;;;;;;;6.37;4.17;;;;;;;;;;4407266;32;20697;-84
2021/12/30 04:12:00;;;;;;;7.77;4.73;;;;;;;;;;4408145;32;20279;-81
2021/12/30 04:14:27;;;;;;;9.10;6.27;;;;;;;;;;4393392;32;20647;-82
2021/12/30 04:16:53;;;;;;;17.17;8.53;;;;;;;;;;4407406;32;20296;-82
2021/12/30 04:19:19;;;;;;;13.27;7.77;;;;;;;;;;4407565;32;20255;-81
2021/12/30 04:21:46;;;;;;;21.73;12.73;;;;;;;;;;4407508;32;20649;-81
2021/12/30 04:24:12;;;;;;;20.50;11.83;;;;;;;;;;4407803;32;20619;-86
2021/12/30 04:26:37;;;;;;;44.70;21.33;;;;;;;;;;4407594;32;20232;-85
2021/12/30 04:29:04;;;;;;;49.00;26.17;;;;;;;;;;4407459;32;20217;-82
2021/12/30 04:31:31;;;;;;;47.93;23.53;;;;;;;;;;4407130;32;20247;-86
2021/12/30 04:33:57;;;;;;;39.23;20.13;;;;;;;;;;4393830;32;20206;-81
2021/12/30 04:36:23;;;;;;;44.00;21.50;;;;;;;;;;4408071;32;20210;-81
2021/12/30 04:38:48;;;;;;;44.63;21.83;;;;;;;;;;4406920;32;20224;-82
2021/12/30 04:41:14;;;;;;;36.93;21.13;;;;;;;;;;4407264;32;20281;-82
2021/12/30 04:43:40;;;;;;;30.20;18.50;;;;;;;;;;4407429;32;20220;-87
2021/12/30 04:46:05;;;;;;;47.77;18.20;;;;;;;;;;4407369;32;20290;-82
2021/12/30 04:48:31;;;;;;;48.03;20.20;;;;;;;;;;4393158;32;20270;-83
2021/12/30 04:50:56;;;;;;;42.37;19.97;;;;;;;;;;4407645;32;20297;-86
2021/12/30 04:53:22;;;;;;;39.20;19.43;;;;;;;;;;4408873;32;20622;-81
2021/12/30 04:55:48;;;;;;;44.00;19.90;;;;;;;;;;4409119;32;20251;-84
2021/12/30 04:58:15;;;;;;;41.17;20.33;;;;;;;;;;4408525;32;20194;-84
2021/12/30 05:00:42;;;;;;;24.13;13.30;;;;;;;;;;4408003;32;20225;-81
2021/12/30 05:03:15;;;;;;;28.50;13.07;;;;;;;;;;4407866;32;20198;-86
2021/12/30 05:05:46;;;;;;;29.10;14.87;;;;;;;;;;4407268;32;20217;-84
2021/12/30 05:08:14;;;;;;;47.00;18.63;;;;;;;;;;4407482;32;20224;-85
2021/12/30 05:10:40;;;;;;;27.83;15.17;;;;;;;;;;4393073;32;20241;-80
2021/12/30 05:13:06;;;;;;;22.90;11.80;;;;;;;;;;4393842;32;20264;-83
2021/12/30 05:15:33;;;;;;;17.83;10.20;;;;;;;;;;4408321;32;20212;-81
2021/12/30 05:17:59;;;;;;;18.07;9.13;;;;;;;;;;4408893;32;20357;-83
2021/12/30 05:20:24;;;;;;;13.87;8.57;;;;;;;;;;4406708;32;20281;-82
2021/12/30 05:22:50;;;;;;;11.30;6.07;;;;;;;;;;4406759;32;20209;-83
2021/12/30 05:25:18;;;;;;;11.83;6.70;;;;;;;;;;4393320;32;20296;-81
2021/12/30 05:27:45;;;;;;;11.33;5.87;;;;;;;;;;4406982;32;20519;-82
2021/12/30 05:30:13;;;;;;;12.63;7.73;;;;;;;;;;4406913;32;20206;-84
2021/12/30 05:32:39;;;;;;;13.67;7.93;;;;;;;;;;4406568;32;20222;-81
2021/12/30 05:35:06;;;;;;;10.80;5.70;;;;;;;;;;4392852;32;20630;-85
2021/12/30 05:37:32;;;;;;;10.40;6.80;;;;;;;;;;4406205;32;20309;-82
2021/12/30 05:39:58;;;;;;;11.20;6.93;;;;;;;;;;4406387;32;20216;-84
2021/12/30 05:42:23;;;;;;;15.07;8.03;;;;;;;;;;4406193;32;20225;-85
2021/12/30 05:44:53;;;;;;;17.33;9.63;;;;;;;;;;4406346;32;20255;-86
2021/12/30 05:47:19;;;;;;;14.77;6.87;;;;;;;;;;4406167;32;20275;-86
2021/12/30 05:49:45;;;;;;;14.63;6.77;;;;;;;;;;4406395;32;20293;-80
2021/12/30 05:52:11;;;;;;;10.70;7.40;;;;;;;;;;4405972;32;20229;-80
2021/12/30 05:54:36;;;;;;;10.73;6.53;;;;;;;;;;4406164;32;20299;-82
2021/12/30 05:57:02;;;;;;;11.03;7.37;;;;;;;;;;4405909;32;20217;-84
2021/12/30 05:59:28;;;;;;;10.37;6.03;;;;;;;;;;4406610;32;20213;-82
2021/12/30 06:01:54;;;;;;;13.00;6.97;;;;;;;;;;4406594;32;20217;-83
2021/12/30 06:04:22;;;;;;;10.83;5.73;;;;;;;;;;4407150;32;20194;-83
2021/12/30 06:06:48;;;;;;;8.37;5.17;;;;;;;;;;4407279;32;20244;-85
2021/12/30 06:09:14;;;;;;;9.23;5.50;;;;;;;;;;4407203;32;20441;-83
2021/12/30 06:11:39;;;;;;;11.53;6.00;;;;;;;;;;4405873;32;20225;-80
2021/12/30 06:14:05;;;;;;;9.23;5.23;;;;;;;;;;4406161;32;20204;-82
2021/12/30 06:16:31;;;;;;;9.60;5.93;;;;;;;;;;4405608;32;20222;-81
2021/12/30 06:18:59;;;;;;;6.30;4.30;;;;;;;;;;4406281;32;20292;-83
2021/12/30 06:21:25;;;;;;;8.63;4.43;;;;;;;;;;4405772;32;20411;-81
2021/12/30 06:23:51;;;;;;;9.20;5.00;;;;;;;;;;4405716;32;20277;-82
2021/12/30 06:26:17;;;;;;;7.20;3.80;;;;;;;;;;4406281;32;20246;-82
2021/12/30 06:28:44;;;;;;;10.07;5.67;;;;;;;;;;4405454;32;20608;-83
2021/12/30 06:31:09;;;;;;;3.33;3.03;;;;;;;;;;4405739;32;20255;-82
2021/12/30 06:33:35;;;;;;;13.50;8.37;;;;;;;;;;4405391;32;20232;-81
2021/12/30 06:36:00;;;;;;;5.87;4.00;;;;;;;;;;4405883;32;20598;-81
2021/12/30 06:38:26;;;;;;;12.73;7.00;;;;;;;;;;4405460;32;20272;-83
2021/12/30 06:40:52;;;;;;;14.20;9.23;;;;;;;;;;4405659;32;20244;-84
2021/12/30 06:43:17;;;;;;;15.17;7.90;;;;;;;;;;4405561;32;20247;-83
2021/12/30 06:45:44;;;;;;;16.07;7.63;;;;;;;;;;4405511;32;20738;-80
2021/12/30 06:48:15;;;;;;;13.33;7.83;;;;;;;;;;4405227;32;20228;-79
2021/12/30 06:50:51;;;;;;;14.57;8.23;;;;;;;;;;4405140;32;20218;-82
2021/12/30 06:53:19;;;;;;;31.30;18.07;;;;;;;;;;4405243;32;20208;-84
2021/12/30 06:55:45;;;;;;;34.10;19.80;;;;;;;;;;4405416;32;20265;-85
2021/12/30 06:58:11;;;;;;;9.53;6.80;;;;;;;;;;4405046;32;20515;-84
2021/12/30 07:00:36;;;;;;;7.07;4.83;;;;;;;;;;4404749;32;20198;-80
2021/12/30 07:03:03;;;;;;;20.37;14.40;;;;;;;;;;4405120;32;20198;-81
2021/12/30 07:05:29;;;;;;;9.20;6.83;;;;;;;;;;4390976;32;20248;-80
2021/12/30 07:07:54;;;;;;;10.90;6.83;;;;;;;;;;4405461;32;20609;-80
2021/12/30 07:10:20;;;;;;;13.60;9.63;;;;;;;;;;4405525;32;20278;-81
2021/12/30 07:12:45;;;;;;;14.93;9.73;;;;;;;;;;4391922;32;20225;-81
2021/12/30 07:15:12;;;;;;;4.13;3.00;;;;;;;;;;4405820;32;20194;-85
2021/12/30 07:17:38;;;;;;;7.30;5.07;;;;;;;;;;4405467;32;20566;-81
2021/12/30 07:20:04;;;;;;;9.27;5.10;;;;;;;;;;4405382;32;20239;-84
2021/12/30 07:22:30;;;;;;;10.20;6.27;;;;;;;;;;4404746;32;20272;-81
2021/12/30 07:24:58;;;;;;;10.47;7.23;;;;;;;;;;4405254;32;20322;-82
2021/12/30 07:27:24;;;;;;;11.30;8.00;;;;;;;;;;4404712;32;20229;-84
2021/12/30 07:29:49;;;;;;;25.10;14.10;;;;;;;;;;4404618;32;20221;-80
2021/12/30 07:32:14;;;;;;;31.73;16.23;;;;;;;;;;4404963;32;20315;-80
2021/12/30 07:34:40;;;;;;;33.93;20.23;;;;;;;;;;4405011;32;20214;-82
2021/12/30 07:37:05;;;;;;;31.87;15.57;;;;;;;;;;4405347;32;20269;-80
2021/12/30 07:39:31;;;;;;;49.87;25.20;;;;;;;;;;4390925;32;20293;-80
2021/12/30 07:41:56;;;;;;;22.13;14.40;;;;;;;;;;4391217;32;20220;-81
2021/12/30 07:44:22;;;;;;;40.83;24.57;;;;;;;;;;4393443;32;20225;-81
2021/12/30 07:46:48;;;;;;;39.50;25.67;;;;;;;;;;4408049;32;20198;-82
2021/12/30 07:49:14;;;;;;;20.00;12.43;;;;;;;;;;4407913;32;20217;-83
2021/12/30 07:51:39;;;;;;;17.40;10.07;;;;;;;;;;4408393;32;20193;-81
2021/12/30 07:54:04;;;;;;;15.20;10.77;;;;;;;;;;4394274;32;20237;-81
2021/12/30 07:56:30;;;;;;;14.17;9.33;;;;;;;;;;4408123;32;20223;-84
2021/12/30 07:58:56;;;;;;;12.63;8.67;;;;;;;;;;4407694;32;20214;-82
2021/12/30 08:01:22;;;;;;;9.17;5.87;;;;;;;;;;4407934;32;20201;-81
2021/12/30 08:03:47;;;;;;;15.83;8.13;;;;;;;;;;4407740;32;20363;-83
2021/12/30 08:06:13;;;;;;;10.27;6.37;;;;;;;;;;4407942;32;20286;-85
2021/12/30 08:08:39;;;;;;;5.00;4.10;;;;;;;;;;4393728;32;20301;-84
2021/12/30 08:11:05;;;;;;;2.63;2.20;;;;;;;;;;4407434;32;20298;-82
2021/12/30 08:13:31;;;;;;;3.63;3.07;;;;;;;;;;4407797;32;20225;-81
2021/12/30 08:15:56;;;;;;;4.43;2.97;;;;;;;;;;4407585;32;20232;-87
2021/12/30 08:18:22;;;;;;;3.87;3.20;;;;;;;;;;4407408;32;20609;-83
2021/12/30 08:20:48;;;;;;;5.97;4.10;;;;;;;;;;4407764;32;20449;-81
2021/12/30 08:23:13;;;;;;;7.50;4.70;;;;;;;;;;4407283;32;20248;-83
2021/12/30 08:25:39;;;;;;;8.20;5.10;;;;;;;;;;4407325;32;20651;-79
2021/12/30 08:28:04;;;;;;;15.77;7.90;;;;;;;;;;4408152;32;20308;-80
2021/12/30 08:30:30;;;;;;;16.23;8.77;;;;;;;;;;4395530;32;20232;-81
2021/12/30 08:32:56;;;;;;;8.10;4.50;;;;;;;;;;4409957;32;20296;-82
2021/12/30 08:35:22;;;;;;;7.20;4.63;;;;;;;;;;4396040;32;20542;-79
2021/12/30 08:37:51;;;;;;;15.67;6.83;;;;;;;;;;4409631;32;20222;-80
2021/12/30 08:40:17;;;;;;;19.27;10.50;;;;;;;;;;4381230;32;20221;-83
2021/12/30 08:42:43;;;;;;;10.57;6.77;;;;;;;;;;4407819;32;20262;-82
2021/12/30 08:45:10;;;;;;;13.93;9.27;;;;;;;;;;4408413;32;20554;-80
2021/12/30 08:47:36;;;;;;;11.00;5.83;;;;;;;;;;4395870;32;20197;-87
2021/12/30 08:50:05;;;;;;;11.87;7.43;;;;;;;;;;4407423;32;20201;-79
2021/12/30 08:52:30;;;;;;;16.77;10.67;;;;;;;;;;4406997;32;20619;-80
2021/12/30 08:55:00;;;;;;;8.43;5.60;;;;;;;;;;4406766;32;20193;-83
2021/12/30 08:57:25;;;;;;;21.53;11.50;;;;;;;;;;4406458;32;20267;-80
2021/12/30 08:59:51;;;;;;;27.27;16.63;;;;;;;;;;4406967;32;20495;-82
2021/12/30 09:02:16;;;;;;;40.43;26.30;;;;;;;;;;4407558;32;20201;-81
2021/12/30 09:04:45;;;;;;;27.63;18.53;;;;;;;;;;4406592;32;20229;-84
2021/12/30 09:07:12;;;;;;;24.30;12.57;;;;;;;;;;4393250;32;20235;-82
2021/12/30 09:09:39;;;;;;;32.60;15.57;;;;;;;;;;4393377;32;20217;-86
2021/12/30 09:12:05;;;;;;;18.53;10.83;;;;;;;;;;4406576;32;20269;-81
2021/12/30 09:14:31;;;;;;;24.80;11.73;;;;;;;;;;4409473;32;20336;-79
2021/12/30 09:16:57;;;;;;;52.47;22.93;;;;;;;;;;4411238;32;20591;-80
2021/12/30 09:19:23;;;;;;;55.20;25.13;;;;;;;;;;4397125;32;20241;-83
2021/12/30 09:21:48;;;;;;;28.97;15.50;;;;;;;;;;4409168;32;20609;-83
2021/12/30 09:24:14;;;;;;;18.13;10.47;;;;;;;;;;4407116;32;20314;-81
2021/12/30 09:26:39;;;;;;;10.63;7.03;;;;;;;;;;4406535;32;20232;-86
2021/12/30 09:29:10;;;;;;;10.57;5.63;;;;;;;;;;4392824;32;20646;-81
2021/12/30 09:31:46;;;;;;;8.77;5.17;;;;;;;;;;4406549;32;20622;-82
2021/12/30 09:34:12;;;;;;;7.90;4.13;;;;;;;;;;4406351;32;20626;-80
2021/12/30 09:36:38;;;;;;;6.33;5.07;;;;;;;;;;4405831;32;20197;-80
2021/12/30 09:39:07;;;;;;;6.63;4.50;;;;;;;;;;4392472;32;20218;-81
2021/12/30 09:41:34;;;;;;;9.63;5.40;;;;;;;;;;4406185;32;20629;-83
2021/12/30 09:44:00;;;;;;;8.73;5.60;;;;;;;;;;4406244;32;20213;-81
2021/12/30 09:46:26;;;;;;;6.37;4.07;;;;;;;;;;4406787;32;20606;-82
2021/12/30 09:48:51;;;;;;;8.67;4.90;;;;;;;;;;4406227;32;20213;-85
2021/12/30 09:51:17;;;;;;;9.73;6.50;;;;;;;;;;4406396;32;20197;-83
2021/12/30 09:53:42;;;;;;;9.00;5.73;;;;;;;;;;4392120;32;20259;-87
2021/12/30 09:56:08;;;;;;;9.30;5.63;;;;;;;;;;4405963;32;20284;-85
2021/12/30 09:58:33;;;;;;;6.77;4.53;;;;;;;;;;4405941;32;20290;-80
2021/12/30 10:01:00;;;;;;;11.00;6.13;;;;;;;;;;4405591;32;20198;-82
2021/12/30 10:03:29;;;;;;;6.97;5.10;;;;;;;;;;4405636;32;20351;-83
2021/12/30 10:06:06;;;;;;;8.50;4.97;;;;;;;;;;4406016;32;20333;-82
2021/12/30 10:08:36;;;;;;;9.80;5.77;;;;;;;;;;4406491;32;20221;-80
2021/12/30 10:11:05;;;;;;;9.03;5.47;;;;;;;;;;4406264;32;20198;-83
2021/12/30 10:13:33;;;;;;;12.73;6.00;;;;;;;;;;4405775;32;20264;-81
2021/12/30 10:16:05;;;;;;;10.07;6.20;;;;;;;;;;4406116;32;20201;-83
2021/12/30 10:18:55;;;;;;;7.47;4.33;;;;;;;;;;4405770;32;20569;-83
2021/12/30 10:21:25;;;;;;;6.43;3.90;;;;;;;;;;4406332;32;20560;-81
2021/12/30 10:23:54;;;;;;;10.30;6.47;;;;;;;;;;4405886;32;20221;-79
2021/12/30 10:26:20;;;;;;;15.33;8.43;;;;;;;;;;4406012;32;20202;-86
2021/12/30 10:28:54;;;;;;;18.23;7.07;;;;;;;;;;4406191;32;20248;-83
2021/12/30 10:31:31;;;;;;;8.73;5.03;;;;;;;;;;4406334;32;20216;-83
2021/12/30 10:34:02;;;;;;;10.13;6.80;;;;;;;;;;4393091;32;20301;-79
2021/12/30 10:36:42;;;;;;;12.57;7.63;;;;;;;;;;4392685;32;20214;-80
2021/12/30 10:39:21;;;;;;;14.63;9.37;;;;;;;;;;4406559;32;20335;-81
2021/12/30 10:41:49;;;;;;;48.13;20.90;;;;;;;;;;4406082;32;20197;-80
2021/12/30 10:44:16;;;;;;;19.97;11.47;;;;;;;;;;4392151;32;20296;-83
2021/12/30 10:46:42;;;;;;;14.13;8.87;;;;;;;;;;4406121;32;20236;-82
2021/12/30 10:49:19;;;;;;;17.80;9.53;;;;;;;;;;4406078;32;20296;-81
2021/12/30 10:51:50;;;;;;;12.20;6.47;;;;;;;;;;4405771;32;20605;-84
2021/12/30 10:54:27;;;;;;;10.33;6.67;;;;;;;;;;4405303;32;20213;-88
2021/12/30 10:57:08;;;;;;;17.43;9.97;;;;;;;;;;4405862;32;20194;-82
2021/12/30 10:59:38;;;;;;;26.80;11.60;;;;;;;;;;4405415;32;20240;-82
2021/12/30 11:02:15;;;;;;;45.83;23.30;;;;;;;;;;4405462;32;20642;-79
2021/12/30 11:04:41;;;;;;;13.27;7.23;;;;;;;;;;4391205;32;20228;-80
2021/12/30 11:07:08;;;;;;;35.00;15.73;;;;;;;;;;4405239;32;20201;-82
2021/12/30 11:09:34;;;;;;;43.43;19.60;;;;;;;;;;4405708;32;20241;-82
2021/12/30 11:12:04;;;;;;;45.00;19.53;;;;;;;;;;4391397;32;20222;-82
2021/12/30 11:14:34;;;;;;;25.77;11.97;;;;;;;;;;4405203;32;20236;-81
2021/12/30 11:17:12;;;;;;;21.63;12.47;;;;;;;;;;4404891;32;20748;-81
2021/12/30 11:19:53;;;;;;;24.40;13.23;;;;;;;;;;4407636;32;20254;-86
2021/12/30 11:22:21;;;;;;;21.40;11.50;;;;;;;;;;4408109;32;20300;-82
2021/12/30 11:24:48;;;;;;;18.97;11.10;;;;;;;;;;4408351;32;20650;-78
2021/12/30 11:27:16;;;;;;;19.90;10.33;;;;;;;;;;4408158;32;20520;-79
2021/12/30 11:29:45;;;;;;;18.47;10.77;;;;;;;;;;4407998;32;20248;-82
2021/12/30 11:32:13;;;;;;;27.30;14.40;;;;;;;;;;4408082;32;20236;-82
2021/12/30 11:34:39;;;;;;;28.20;14.93;;;;;;;;;;4394909;32;20374;-78
2021/12/30 11:37:05;;;;;;;10.83;5.10;;;;;;;;;;4408149;32;20275;-80
2021/12/30 11:39:31;;;;;;;27.70;12.80;;;;;;;;;;4407967;32;20198;-86
2021/12/30 11:42:00;;;;;;;14.60;8.33;;;;;;;;;;4381900;32;20562;-84
2021/12/30 11:44:37;;;;;;;13.47;7.00;;;;;;;;;;4408090;32;20238;-79
2021/12/30 11:47:04;;;;;;;28.87;15.20;;;;;;;;;;4408384;32;20266;-81
2021/12/30 11:49:55;;;;;;;30.87;15.47;;;;;;;;;;4393901;32;20300;-80
2021/12/30 11:52:48;;;;;;;23.60;12.07;;;;;;;;;;4408503;32;20221;-80
2021/12/30 11:55:51;;;;;;;13.67;7.80;;;;;;;;;;4407685;32;20223;-81
2021/12/30 12:00:56;;;;;;;17.50;10.17;;;;;;;;;;4407550;32;20264;-80
2021/12/30 12:03:44;;;;;;;23.50;12.27;;;;;;;;;;4407933;32;20213;-84
2021/12/30 12:06:25;;;;;;;17.90;8.10;;;;;;;;;;4408042;32;20213;-80
2021/12/30 12:09:02;;;;;;;15.17;8.13;;;;;;;;;;4394925;32;20233;-82
2021/12/30 12:11:30;;;;;;;17.73;10.07;;;;;;;;;;4408387;32;20197;-85
2021/12/30 12:14:12;;;;;;;17.10;9.40;;;;;;;;;;4407909;32;20243;-82
2021/12/30 12:16:59;;;;;;;19.40;11.53;;;;;;;;;;4408643;32;20234;-79
2021/12/30 12:19:41;;;;;;;24.50;12.03;;;;;;;;;;4408879;32;20313;-79
2021/12/30 12:22:18;;;;;;;23.50;12.43;;;;;;;;;;4408997;32;20201;-80
2021/12/30 12:24:48;;;;;;;36.50;17.73;;;;;;;;;;4408026;32;20217;-80
2021/12/30 12:27:19;;;;;;;19.07;10.87;;;;;;;;;;4409080;32;20213;-79
2021/12/30 12:29:49;;;;;;;28.67;16.17;;;;;;;;;;4408795;32;20360;-79
2021/12/30 12:32:19;;;;;;;41.60;18.37;;;;;;;;;;4409463;32;20267;-82
2021/12/30 12:34:50;;;;;;;23.87;13.40;;;;;;;;;;4395454;32;20296;-86
2021/12/30 12:37:40;;;;;;;28.33;16.57;;;;;;;;;;4408476;32;20228;-85
2021/12/30 12:40:11;;;;;;;23.17;11.17;;;;;;;;;;4408759;32;20214;-85
2021/12/30 12:42:43;;;;;;;40.17;21.27;;;;;;;;;;4394410;32;20333;-81
2021/12/30 12:45:16;;;;;;;21.90;12.63;;;;;;;;;;4409187;32;20247;-83
2021/12/30 12:47:43;;;;;;;9.67;5.13;;;;;;;;;;4409094;32;20327;-81
2021/12/30 12:50:09;;;;;;;24.63;12.20;;;;;;;;;;4395416;32;20328;-82
2021/12/30 12:52:47;;;;;;;28.53;16.13;;;;;;;;;;4409806;32;20284;-84
2021/12/30 12:55:16;;;;;;;24.97;16.73;;;;;;;;;;4409554;32;20235;-80
2021/12/30 12:57:42;;;;;;;41.00;21.47;;;;;;;;;;4410797;32;20338;-80
2021/12/30 13:00:09;;;;;;;32.90;17.17;;;;;;;;;;4411802;32;20229;-78
2021/12/30 13:02:35;;;;;;;52.57;24.37;;;;;;;;;;4409799;32;20429;-74
2021/12/30 13:05:13;;;;;;;18.57;9.97;;;;;;;;;;4412103;32;20348;-77
2021/12/30 13:07:39;;;;;;;26.27;13.93;;;;;;;;;;4415716;32;20246;-77
2021/12/30 13:10:06;;;;;;;10.80;7.47;;;;;;;;;;4419963;32;20369;-79
2021/12/30 13:12:39;;;;;;;14.20;6.33;;;;;;;;;;4419206;32;20225;-80
2021/12/30 13:15:12;;;;;;;10.70;5.93;;;;;;;;;;4419343;32;20283;-82
2021/12/30 13:17:38;;;;;;;6.60;4.40;;;;;;;;;;4406030;32;20229;-80
2021/12/30 13:20:04;;;;;;;10.27;4.53;;;;;;;;;;4418728;32;20174;-80
2021/12/30 13:22:31;;;;;;;5.57;3.20;;;;;;;;;;4399289;32;20226;-78
2021/12/30 13:24:58;;;;;;;7.50;4.33;;;;;;;;;;4407826;32;20324;-82
2021/12/30 13:27:28;;;;;;;5.10;3.37;;;;;;;;;;4408470;32;20236;-81
2021/12/30 13:30:08;;;;;;;6.10;3.27;;;;;;;;;;4411252;32;20589;-82
2021/12/30 13:32:36;;;;;;;5.50;3.20;;;;;;;;;;4408287;32;20196;-78
2021/12/30 13:35:07;;;;;;;3.43;2.83;;;;;;;;;;4407995;32;20665;-80
2021/12/30 13:37:53;;;;;;;9.27;4.00;;;;;;;;;;4407992;32;20190;-79
2021/12/30 13:40:27;;;;;;;8.17;5.17;;;;;;;;;;4406603;32;20436;-81
2021/12/30 13:42:56;;;;;;;6.87;3.87;;;;;;;;;;4407783;32;20582;-83
2021/12/30 13:45:31;;;;;;;10.83;6.83;;;;;;;;;;4409593;32;20247;-82
2021/12/30 13:48:18;;;;;;;11.87;7.07;;;;;;;;;;4407316;32;20205;-81
2021/12/30 13:50:51;;;;;;;10.67;4.20;;;;;;;;;;4407091;32;20245;-79
2021/12/30 13:53:17;;;;;;;7.83;5.20;;;;;;;;;;4407187;32;20587;-82
2021/12/30 13:55:50;;;;;;;15.60;8.87;;;;;;;;;;4393005;32;20316;-80
2021/12/30 13:58:25;;;;;;;15.40;7.97;;;;;;;;;;4406848;32;20225;-79
2021/12/30 14:00:58;;;;;;;17.70;9.43;;;;;;;;;;4406696;32;20216;-80
2021/12/30 14:03:30;;;;;;;14.67;8.03;;;;;;;;;;4392567;32;20622;-81
2021/12/30 14:06:11;;;;;;;18.63;9.13;;;;;;;;;;4406514;32;20233;-82
2021/12/30 14:08:49;;;;;;;17.03;8.17;;;;;;;;;;4392207;32;20225;-79
2021/12/30 14:11:14;;;;;;;11.40;6.97;;;;;;;;;;4406536;32;20733;-82
2021/12/30 14:13:45;;;;;;;12.90;7.67;;;;;;;;;;4406463;32;20197;-81
2021/12/30 14:16:19;;;;;;;18.70;9.90;;;;;;;;;;4406723;32;20360;-81
2021/12/30 14:18:46;;;;;;;14.17;6.80;;;;;;;;;;4406107;32;20611;-81
2021/12/30 14:21:12;;;;;;;11.27;6.43;;;;;;;;;;4407063;32;20240;-80
2021/12/30 14:23:47;;;;;;;6.10;4.57;;;;;;;;;;4393765;32;20614;-82
2021/12/30 14:26:21;;;;;;;5.43;3.87;;;;;;;;;;4407361;32;20296;-80
2021/12/30 14:29:05;;;;;;;11.63;6.77;;;;;;;;;;4410249;32;20236;-80
2021/12/30 14:31:39;;;;;;;20.90;13.47;;;;;;;;;;4408374;32;20286;-81
2021/12/30 14:34:22;;;;;;;8.27;4.87;;;;;;;;;;4407354;32;20366;-81
2021/12/30 14:37:15;;;;;;;8.30;5.13;;;;;;;;;;4393521;32;20230;-83
2021/12/30 14:39:43;;;;;;;10.23;5.37;;;;;;;;;;4407832;32;20677;-81